createdAt,value
2023-03-03T00:01:28.347Z,100848.31
2023-03-03T00:03:56.384Z,100846.54
2023-03-03T00:06:24.907Z,100847.54
2023-03-03T00:08:52.778Z,100848.30
2023-03-03T00:11:20.588Z,100842.90
2023-03-03T00:13:50.231Z,100842.14
2023-03-03T00:16:18.425Z,100843.34
2023-03-03T00:18:48.015Z,100840.58
2023-03-03T00:21:44.880Z,100836.25
2023-03-03T00:24:21.914Z,100833.04
2023-03-03T00:26:57.746Z,100824.66
2023-03-03T00:29:35.924Z,100819.16
2023-03-03T00:32:42.439Z,100816.88
2023-03-03T00:35:35.590Z,100811.80
2023-03-03T00:38:14.714Z,100811.98
2023-03-03T00:40:42.679Z,100813.79
2023-03-03T00:43:24.975Z,100808.66
2023-03-03T00:45:53.967Z,100811.20
2023-03-03T00:48:27.981Z,100812.48
2023-03-03T00:50:58.138Z,100807.84
2023-03-03T00:53:29.623Z,100802.95
2023-03-03T00:55:58.107Z,100797.98
2023-03-03T00:58:27.433Z,100795.43
2023-03-03T01:00:56.782Z,100791.83
2023-03-03T01:03:28.327Z,100790.46
2023-03-03T01:05:56.101Z,100785.43
2023-03-03T01:08:24.149Z,100784.36
2023-03-03T01:10:54.682Z,100784.31
2023-03-03T01:13:25.961Z,100782.25
2023-03-03T01:15:54.241Z,100776.73
2023-03-03T01:18:22.059Z,100767.26
2023-03-03T01:20:49.771Z,100761.89
2023-03-03T01:23:18.126Z,100758.33
2023-03-03T01:25:45.791Z,100756.92
2023-03-03T01:28:13.670Z,100756.75
2023-03-03T01:30:41.412Z,100758.59
2023-03-03T01:33:09.273Z,100758.98
2023-03-03T01:35:37.081Z,100756.94
2023-03-03T01:38:04.883Z,100747.70
2023-03-03T01:40:33.055Z,100743.66
2023-03-03T01:43:01.606Z,100746.05
2023-03-03T01:45:57.368Z,100746.35
2023-03-03T01:48:37.103Z,100738.07
2023-03-03T01:51:15.810Z,100730.30
2023-03-03T01:53:48.074Z,100729.36
2023-03-03T01:56:16.730Z,100731.61
2023-03-03T01:59:01.895Z,100733.54
2023-03-03T02:01:31.600Z,100733.97
2023-03-03T02:03:59.768Z,100732.90
2023-03-03T02:06:35.387Z,100729.36
2023-03-03T02:09:26.589Z,100721.45
2023-03-03T02:12:01.237Z,100725.92
2023-03-03T02:14:29.039Z,100723.77
2023-03-03T02:16:57.375Z,100722.66
2023-03-03T02:19:33.036Z,100728.20
2023-03-03T02:22:05.109Z,100725.38
2023-03-03T02:24:44.946Z,100731.52
2023-03-03T02:27:14.141Z,100730.56
2023-03-03T02:29:42.033Z,100728.89
2023-03-03T02:32:10.245Z,100727.12
2023-03-03T02:34:50.254Z,100734.35
2023-03-03T02:37:19.727Z,100728.86
2023-03-03T02:39:47.464Z,100725.75
2023-03-03T02:42:23.882Z,100721.09
2023-03-03T02:44:54.497Z,100722.27
2023-03-03T02:47:22.537Z,100722.96
2023-03-03T02:49:50.344Z,100720.95
2023-03-03T02:52:19.176Z,100721.93
2023-03-03T02:54:47.572Z,100716.77
2023-03-03T02:57:15.468Z,100716.88
2023-03-03T02:59:43.227Z,100718.88
2023-03-03T03:02:13.547Z,100719.52
2023-03-03T03:04:42.116Z,100719.67
2023-03-03T03:07:11.868Z,100718.29
2023-03-03T03:09:40.111Z,100714.98
2023-03-03T03:12:08.703Z,100714.90
2023-03-03T03:14:36.955Z,100714.85
2023-03-03T03:17:05.597Z,100708.33
2023-03-03T03:19:33.402Z,100712.26
2023-03-03T03:22:02.516Z,100711.52
2023-03-03T03:24:30.574Z,100710.17
2023-03-03T03:27:02.295Z,100710.95
2023-03-03T03:29:30.199Z,100710.31
2023-03-03T03:31:58.008Z,100713.85
2023-03-03T03:34:25.763Z,100714.02
2023-03-03T03:36:54.202Z,100711.29
2023-03-03T03:39:22.282Z,100712.63
2023-03-03T03:41:50.974Z,100710.20
2023-03-03T03:44:18.702Z,100710.67
2023-03-03T03:46:46.441Z,100708.70
2023-03-03T03:49:14.241Z,100709.05
2023-03-03T03:51:42.375Z,100705.67
2023-03-03T03:54:13.140Z,100704.14
2023-03-03T03:56:41.083Z,100710.88
2023-03-03T03:59:09.592Z,100715.11
2023-03-03T04:01:38.007Z,100712.08
2023-03-03T04:04:06.119Z,100704.65
2023-03-03T04:06:34.560Z,100700.64
2023-03-03T04:09:03.508Z,100691.55
2023-03-03T04:11:31.790Z,100686.31
2023-03-03T04:13:59.491Z,100681.95
2023-03-03T04:16:27.501Z,100681.77
2023-03-03T04:18:56.809Z,100684.59
2023-03-03T04:21:25.908Z,100686.04
2023-03-03T04:23:54.265Z,100683.42
2023-03-03T04:26:22.260Z,100680.95
2023-03-03T04:28:50.244Z,100676.38
2023-03-03T04:31:20.601Z,100670.83
2023-03-03T04:33:49.234Z,100672.00
2023-03-03T04:36:17.970Z,100673.36
2023-03-03T04:38:45.934Z,100667.81
2023-03-03T04:41:14.384Z,100662.55
2023-03-03T04:43:43.064Z,100662.16
2023-03-03T04:46:12.305Z,100660.45
2023-03-03T04:48:40.319Z,100663.70
2023-03-03T04:51:08.293Z,100658.88
2023-03-03T04:53:38.309Z,100657.98
2023-03-03T04:56:06.748Z,100657.17
2023-03-03T04:58:34.539Z,100651.61
2023-03-03T05:01:02.394Z,100647.82
2023-03-03T05:03:30.590Z,100652.19
2023-03-03T05:05:58.410Z,100652.19
2023-03-03T05:08:26.074Z,100654.77
2023-03-03T05:10:54.709Z,100655.98
2023-03-03T05:13:22.861Z,100653.02
2023-03-03T05:15:57.199Z,100652.51
2023-03-03T05:18:26.233Z,100649.40
2023-03-03T05:20:54.217Z,100642.84
2023-03-03T05:23:22.412Z,100646.60
2023-03-03T05:25:50.564Z,100652.73
2023-03-03T05:28:18.900Z,100653.75
2023-03-03T05:30:47.035Z,100656.10
2023-03-03T05:33:16.745Z,100655.64
2023-03-03T05:35:45.277Z,100656.45
2023-03-03T05:38:13.040Z,100658.66
2023-03-03T05:40:40.823Z,100654.19
2023-03-03T05:43:08.569Z,100653.62
2023-03-03T05:45:36.370Z,100660.91
2023-03-03T05:48:04.899Z,100656.29
2023-03-03T05:50:33.419Z,100657.84
2023-03-03T05:53:01.191Z,100659.89
2023-03-03T05:55:28.866Z,100657.71
2023-03-03T05:57:56.996Z,100656.20
2023-03-03T06:00:24.769Z,100660.02
2023-03-03T06:02:54.877Z,100658.95
2023-03-03T06:05:22.785Z,100657.07
2023-03-03T06:07:50.592Z,100660.45
2023-03-03T06:10:18.418Z,100657.40
2023-03-03T06:12:46.673Z,100657.59
2023-03-03T06:15:14.526Z,100651.61
2023-03-03T06:17:42.479Z,100654.88
2023-03-03T06:20:11.109Z,100648.80
2023-03-03T06:22:39.260Z,100642.26
2023-03-03T06:25:07.267Z,100642.94
2023-03-03T06:27:35.381Z,100649.63
2023-03-03T06:30:04.158Z,100648.21
2023-03-03T06:32:32.066Z,100651.89
2023-03-03T06:34:59.763Z,100652.10
2023-03-03T06:37:27.456Z,100648.12
2023-03-03T06:39:55.462Z,100652.24
2023-03-03T06:42:24.897Z,100656.45
2023-03-03T06:44:52.636Z,100651.02
2023-03-03T06:47:20.355Z,100653.33
2023-03-03T06:49:48.118Z,100658.88
2023-03-03T06:52:22.900Z,100661.86
2023-03-03T06:54:55.224Z,100663.23
2023-03-03T06:57:33.915Z,100663.64
2023-03-03T07:00:14.272Z,100665.73
2023-03-03T07:02:42.313Z,100658.95
2023-03-03T07:05:15.457Z,100664.80
2023-03-03T07:07:44.028Z,100661.78
2023-03-03T07:10:28.499Z,100660.48
2023-03-03T07:13:02.154Z,100657.23
2023-03-03T07:15:36.121Z,100661.17
2023-03-03T07:18:29.988Z,100667.86
2023-03-03T07:20:57.677Z,100653.22
2023-03-03T07:23:31.057Z,100644.25
2023-03-03T07:25:58.734Z,100635.39
2023-03-03T07:28:29.262Z,100623.55
2023-03-03T07:30:58.273Z,100627.45
2023-03-03T07:33:29.046Z,100631.20
2023-03-03T07:35:59.291Z,100635.27
2023-03-03T07:38:37.271Z,100642.69
2023-03-03T07:41:17.318Z,100637.40
2023-03-03T07:44:29.691Z,100636.46
2023-03-03T07:46:57.405Z,100635.86
2023-03-03T07:49:33.203Z,100638.48
2023-03-03T07:52:01.567Z,100645.90
2023-03-03T07:54:40.493Z,100651.57
2023-03-03T07:57:14.280Z,100650.31
2023-03-03T08:00:06.155Z,100653.18
2023-03-03T08:02:47.111Z,100658.98
2023-03-03T08:05:34.857Z,100665.30
2023-03-03T08:08:23.729Z,100664.00
2023-03-03T08:10:54.494Z,100663.61
2023-03-03T08:13:35.504Z,100659.63
2023-03-03T08:16:09.142Z,100662.23
2023-03-03T08:18:38.628Z,100661.50
2023-03-03T08:21:13.001Z,100664.27
2023-03-03T08:23:41.187Z,100662.86
2023-03-03T08:26:09.711Z,100662.14
2023-03-03T08:28:37.422Z,100659.89
2023-03-03T08:31:16.787Z,100662.39
2023-03-03T08:33:47.851Z,100670.88
2023-03-03T08:36:15.501Z,100675.02
2023-03-03T08:38:43.235Z,100673.09
2023-03-03T08:41:11.493Z,100679.41
2023-03-03T08:43:39.872Z,100682.72
2023-03-03T08:46:10.307Z,100682.61
2023-03-03T08:48:38.262Z,100683.37
2023-03-03T08:51:06.773Z,100682.45
2023-03-03T08:53:36.602Z,100679.79
2023-03-03T08:56:05.715Z,100675.27
2023-03-03T08:58:35.906Z,100679.30
2023-03-03T09:01:04.950Z,100673.63
2023-03-03T09:03:33.076Z,100669.79
2023-03-03T09:06:00.889Z,100670.02
2023-03-03T09:08:28.681Z,100677.01
2023-03-03T09:10:56.370Z,100689.66
2023-03-03T09:13:24.092Z,100704.54
2023-03-03T09:15:51.785Z,100705.79
2023-03-03T11:41:58.185Z,100651.89
2023-03-03T11:44:52.078Z,100649.77
2023-03-03T11:47:39.458Z,100648.52
2023-03-03T11:50:16.205Z,100645.81
2023-03-03T11:53:05.817Z,100640.30
2023-03-03T11:55:37.655Z,100638.02
2023-03-03T11:58:14.340Z,100636.52
2023-03-03T12:00:51.796Z,100628.70
2023-03-03T12:03:35.856Z,100625.63
2023-03-03T12:06:25.588Z,100626.59
2023-03-03T12:09:12.028Z,100631.42
2023-03-03T12:11:49.740Z,100633.30
2023-03-03T12:14:37.403Z,100635.62
2023-03-03T12:17:23.957Z,100633.63
2023-03-03T12:20:03.809Z,100638.72
2023-03-03T12:22:35.846Z,100639.20
2023-03-03T12:25:21.961Z,100634.17
2023-03-03T12:28:15.657Z,100637.89
2023-03-03T12:31:07.705Z,100637.87
2023-03-03T12:33:51.304Z,100636.81
2023-03-03T12:36:30.932Z,100644.16
2023-03-03T12:39:34.435Z,100643.65
2023-03-03T12:42:41.213Z,100642.36
2023-03-03T12:45:14.765Z,100640.40
2023-03-03T12:47:51.670Z,100643.48
2023-03-03T12:50:39.232Z,100640.21
2023-03-03T12:53:27.154Z,100642.62
2023-03-03T12:56:06.122Z,100645.14
2023-03-03T12:58:56.865Z,100642.88
2023-03-03T13:02:12.058Z,100639.50
2023-03-03T13:04:56.750Z,100641.08
2023-03-03T13:07:42.108Z,100645.08
2023-03-03T13:10:12.720Z,100643.98
2023-03-03T13:12:50.617Z,100634.56
2023-03-03T13:16:06.509Z,100634.04
2023-03-03T13:18:54.971Z,100639.25
2023-03-03T13:21:33.074Z,100636.75
2023-03-03T13:24:19.443Z,100635.38
2023-03-03T13:26:56.520Z,100635.42
2023-03-03T13:29:34.595Z,100632.89
2023-03-03T13:32:12.421Z,100631.48
2023-03-03T13:35:08.190Z,100631.33
2023-03-03T13:37:42.121Z,100634.08
2023-03-03T13:40:12.644Z,100628.34
2023-03-03T13:42:59.564Z,100630.35
2023-03-03T13:45:37.472Z,100632.63
2023-03-03T13:48:14.305Z,100628.10
2023-03-03T13:50:48.859Z,100621.27
2023-03-03T13:53:46.677Z,100616.23
2023-03-03T13:56:23.373Z,100615.46
2023-03-03T13:58:59.659Z,100619.21
2023-03-03T14:01:45.739Z,100619.14
2023-03-03T14:04:53.029Z,100613.48
2023-03-03T14:07:43.017Z,100610.21
2023-03-03T14:10:18.306Z,100604.25
2023-03-03T14:13:15.509Z,100604.83
2023-03-03T14:15:56.846Z,100602.23
2023-03-03T14:18:35.940Z,100596.60
2023-03-03T14:21:11.157Z,100596.09
2023-03-03T14:24:03.831Z,100603.36
2023-03-03T14:26:31.637Z,100598.45
2023-03-03T14:29:22.248Z,100601.56
2023-03-03T14:31:50.052Z,100600.47
2023-03-03T14:34:23.878Z,100599.92
2023-03-03T14:36:57.358Z,100598.40
2023-03-03T14:39:34.504Z,100598.64
2023-03-03T14:42:12.713Z,100598.45
2023-03-03T14:44:46.196Z,100603.27
2023-03-03T14:47:22.610Z,100609.31
2023-03-03T14:49:51.619Z,100609.65
2023-03-03T14:52:23.838Z,100607.52
2023-03-03T14:55:00.764Z,100606.50
2023-03-03T14:57:41.602Z,100612.48
2023-03-03T15:00:12.466Z,100609.96
2023-03-03T15:02:45.922Z,100603.98
2023-03-03T15:05:20.663Z,100607.25
2023-03-03T15:07:53.207Z,100606.86
2023-03-03T15:10:36.449Z,100602.89
2023-03-03T15:13:29.350Z,100606.98
2023-03-03T15:16:00.149Z,100605.69
2023-03-03T15:18:34.377Z,100608.40
2023-03-03T15:21:08.305Z,100609.18
2023-03-03T15:24:01.609Z,100608.41
2023-03-03T15:26:52.865Z,100600.96
2023-03-03T15:29:37.382Z,100604.48
2023-03-03T15:32:31.046Z,100605.31
2023-03-03T15:35:20.248Z,100605.62
2023-03-03T15:38:30.537Z,100608.69
2023-03-03T15:41:23.211Z,100602.09
2023-03-03T15:44:32.299Z,100600.34
2023-03-03T15:47:19.423Z,100606.52
2023-03-03T15:50:03.226Z,100594.65
2023-03-03T15:52:39.927Z,100601.02
2023-03-03T15:55:13.834Z,100601.58
2023-03-03T15:57:57.608Z,100597.40
2023-03-03T16:00:55.318Z,100596.23
2023-03-03T16:03:36.441Z,100598.61
2023-03-03T16:06:12.340Z,100595.44
2023-03-03T16:08:53.401Z,100592.89
2023-03-03T16:11:34.808Z,100591.64
2023-03-03T16:14:08.661Z,100593.07
2023-03-03T16:16:56.677Z,100596.16
2023-03-03T16:19:47.638Z,100597.98
2023-03-03T16:22:24.028Z,100598.39
2023-03-03T16:25:06.425Z,100598.52
2023-03-03T16:27:46.542Z,100598.52
2023-03-03T16:30:27.063Z,100596.14
2023-03-03T16:33:07.455Z,100591.56
2023-03-03T16:35:46.738Z,100593.39
2023-03-03T16:38:27.791Z,100589.89
2023-03-03T16:40:58.987Z,100592.78
2023-03-03T16:43:26.949Z,100589.98
2023-03-03T16:46:04.232Z,100589.34
2023-03-03T16:48:56.868Z,100583.60
2023-03-03T16:51:39.625Z,100588.19
2023-03-03T16:54:15.413Z,100589.29
2023-03-03T16:56:49.081Z,100590.30
2023-03-03T16:59:19.474Z,100591.09
2023-03-03T17:01:56.226Z,100588.84
2023-03-03T17:04:41.012Z,100578.13
2023-03-03T17:07:17.858Z,100578.33
2023-03-03T17:09:58.909Z,100587.45
2023-03-03T17:12:43.228Z,100589.10
2023-03-03T17:15:43.560Z,100589.00
2023-03-03T17:18:38.659Z,100588.70
2023-03-03T17:21:35.472Z,100588.55
2023-03-03T17:24:13.557Z,100586.77
2023-03-03T17:27:02.411Z,100586.08
2023-03-03T17:30:03.061Z,100584.08
2023-03-03T17:32:49.122Z,100583.25
2023-03-03T17:35:55.711Z,100584.59
2023-03-03T17:38:38.670Z,100590.02
2023-03-03T17:41:23.468Z,100591.96
2023-03-03T17:44:07.248Z,100591.13
2023-03-03T17:46:55.078Z,100590.83
2023-03-03T17:49:45.588Z,100590.61
2023-03-03T17:52:39.963Z,100590.30
2023-03-03T17:55:26.303Z,100585.27
2023-03-03T17:58:12.815Z,100584.83
2023-03-03T18:00:43.572Z,100584.04
2023-03-03T18:03:45.105Z,100580.82
2023-03-03T18:06:31.221Z,100575.23
2023-03-03T18:09:14.101Z,100574.35
2023-03-03T18:12:03.836Z,100573.95
2023-03-03T18:15:09.127Z,100570.33
2023-03-03T18:17:52.244Z,100572.27
2023-03-03T18:20:44.839Z,100564.50
2023-03-03T18:23:27.925Z,100562.50
2023-03-03T18:25:58.624Z,100563.89
2023-03-03T18:28:50.611Z,100560.75
2023-03-03T18:31:23.665Z,100552.37
2023-03-03T18:34:02.606Z,100548.27
2023-03-03T18:36:31.938Z,100545.46
2023-03-03T18:39:03.053Z,100545.64
2023-03-03T18:41:32.759Z,100546.94
2023-03-03T18:44:23.169Z,100547.92
2023-03-03T18:46:53.146Z,100541.35
2023-03-03T18:49:46.452Z,100538.89
2023-03-03T18:52:25.025Z,100542.55
2023-03-03T18:55:10.289Z,100543.16
2023-03-03T18:57:38.699Z,100542.28
2023-03-03T19:00:27.347Z,100540.65
2023-03-03T19:02:58.790Z,100539.82
2023-03-03T19:05:35.914Z,100530.20
2023-03-03T19:08:19.352Z,100528.55
2023-03-03T19:10:55.807Z,100520.30
2023-03-03T19:13:32.422Z,100519.97
2023-03-03T19:16:18.413Z,100514.09
2023-03-03T19:18:46.107Z,100522.05
2023-03-03T19:21:30.235Z,100522.21
2023-03-03T19:24:04.389Z,100523.69
2023-03-03T19:26:32.090Z,100522.77
2023-03-03T19:29:18.520Z,100519.98
2023-03-03T19:32:01.422Z,100518.22
2023-03-03T19:34:53.085Z,100516.41
2023-03-03T19:38:03.494Z,100512.52
2023-03-03T19:40:46.542Z,100509.81
2023-03-03T19:43:33.050Z,100504.95
2023-03-03T19:46:30.150Z,100503.06
2023-03-03T19:49:13.121Z,100503.07
2023-03-03T19:51:51.904Z,100499.15
2023-03-03T19:55:01.105Z,100499.88
2023-03-03T19:57:42.611Z,100499.33
2023-03-03T20:00:43.529Z,100495.95
2023-03-03T20:03:50.905Z,100490.38
2023-03-03T20:06:37.277Z,100487.30
2023-03-03T20:09:14.688Z,100479.30
2023-03-03T20:11:59.022Z,100479.54
2023-03-03T20:14:50.088Z,100472.14
2023-03-03T20:17:20.987Z,100476.23
2023-03-03T20:20:00.852Z,100476.73
2023-03-03T20:22:42.304Z,100469.52
2023-03-03T20:25:35.645Z,100465.01
2023-03-03T20:28:24.596Z,100450.85
2023-03-03T20:31:11.476Z,100456.09
2023-03-03T20:34:04.938Z,100456.58
2023-03-03T20:36:48.951Z,100449.34
2023-03-03T20:39:38.574Z,100437.60
2023-03-03T20:42:22.366Z,100425.20
2023-03-03T20:45:05.412Z,100419.13
2023-03-03T20:47:35.839Z,100414.69
2023-03-03T20:50:40.247Z,100424.73
2023-03-03T20:53:46.776Z,100427.48
2023-03-03T20:56:33.293Z,100429.23
2023-03-03T20:59:27.867Z,100423.83
2023-03-03T21:02:14.130Z,100420.29
2023-03-03T21:04:42.168Z,100416.42
2023-03-03T21:07:24.588Z,100415.06
2023-03-03T21:10:11.250Z,100411.90
2023-03-03T21:12:39.094Z,100411.07
2023-03-03T21:15:31.568Z,100404.93
2023-03-03T21:18:00.282Z,100399.09
2023-03-03T21:20:33.949Z,100394.84
2023-03-03T21:23:02.730Z,100396.33
2023-03-03T21:25:54.038Z,100390.77
2023-03-03T21:28:26.405Z,100386.66
2023-03-03T21:31:09.096Z,100377.39
2023-03-03T21:33:57.434Z,100370.41
2023-03-03T21:36:44.721Z,100367.52
2023-03-03T21:39:30.692Z,100369.26
2023-03-03T21:42:07.358Z,100369.92
2023-03-03T21:44:38.467Z,100366.20
2023-03-03T21:47:12.199Z,100359.14
2023-03-03T21:49:48.313Z,100355.60
2023-03-03T21:52:18.584Z,100354.70
2023-03-03T21:54:48.691Z,100351.50
2023-03-03T21:57:16.875Z,100346.77
2023-03-03T21:59:44.881Z,100342.70
2023-03-03T22:02:12.892Z,100343.87
2023-03-03T22:04:41.173Z,100344.52
2023-03-03T22:07:10.176Z,100336.37
2023-03-03T22:09:38.305Z,100336.94
2023-03-03T22:12:09.431Z,100340.76
2023-03-03T22:14:37.173Z,100338.84
2023-03-03T22:17:04.953Z,100328.34
2023-03-03T22:19:34.201Z,100325.27
2023-03-03T22:22:01.898Z,100322.33
2023-03-03T22:24:29.727Z,100316.38
2023-03-03T22:26:57.395Z,100320.64
2023-03-03T22:29:25.253Z,100322.82
2023-03-03T22:31:53.066Z,100318.75
2023-03-03T22:34:20.886Z,100316.14
2023-03-03T22:36:48.544Z,100310.38
2023-03-03T22:39:16.202Z,100301.07
2023-03-03T22:41:43.870Z,100299.92
2023-03-03T22:44:11.514Z,100289.42
2023-03-03T22:46:39.257Z,100285.02
2023-03-03T22:49:07.106Z,100281.83
2023-03-03T22:51:34.752Z,100278.46
2023-03-03T22:54:02.472Z,100276.69
2023-03-03T22:56:30.149Z,100268.65
2023-03-03T22:58:57.850Z,100266.55
2023-03-03T23:01:25.586Z,100262.96
2023-03-03T23:03:53.266Z,100263.92
2023-03-03T23:06:20.927Z,100257.62
2023-03-03T23:08:48.594Z,100258.61
2023-03-03T23:11:16.342Z,100246.73
2023-03-03T23:13:43.999Z,100245.05
2023-03-03T23:16:11.810Z,100243.00
2023-03-03T23:18:39.586Z,100235.58
2023-03-03T23:21:07.306Z,100231.81
2023-03-03T23:23:35.052Z,100234.25
2023-03-03T23:26:03.075Z,100233.91
2023-03-03T23:28:30.788Z,100228.23
2023-03-03T23:30:58.674Z,100225.77
2023-03-03T23:33:26.492Z,100222.22
2023-03-03T23:35:55.206Z,100222.85
2023-03-03T23:38:23.077Z,100221.92
2023-03-03T23:40:51.079Z,100220.55
2023-03-03T23:43:18.895Z,100217.95
2023-03-03T23:45:48.835Z,100208.75
2023-03-03T23:48:17.051Z,100207.36
2023-03-03T23:50:44.936Z,100199.91
2023-03-03T23:53:13.162Z,100190.88
2023-03-03T23:55:41.518Z,100184.58
2023-03-03T23:58:09.699Z,100179.65
